Time;durP1;ratioP1;P1;durP2;ratioP2;P2;SDS_P1;SDS_P2;PMS_P1;PMS_P2;Temp;Humidity;BMP_temperature;BMP_pressure;BME280_temperature;BME280_humidity;BME280_pressure;Samples;Min_cycle;Max_cycle;Signal;HPM_P1;HPM_P2
2022/04/05 00:01:47;;;;;;;;;;;21.20;24.40;;;;;;5169619;27;19927;-60
2022/04/05 00:04:14;;;;;;;;;;;21.10;24.50;;;;;;5163839;27;20005;-58
2022/04/05 00:06:39;;;;;;;;;;;21.10;24.40;;;;;;5163413;27;20005;-58
2022/04/05 00:09:05;;;;;;;;;;;21.10;24.50;;;;;;5147212;27;19923;-58
2022/04/05 00:11:31;;;;;;;;;;;21.10;24.50;;;;;;5162069;27;19923;-59
2022/04/05 00:13:57;;;;;;;;;;;21.10;24.50;;;;;;5163601;27;19923;-58
2022/04/05 00:16:22;;;;;;;;;;;21.10;24.50;;;;;;5169305;27;20408;-58
2022/04/05 00:18:48;;;;;;;;;;;21.20;24.40;;;;;;5163887;27;19930;-58
2022/04/05 00:21:14;;;;;;;;;;;21.10;24.50;;;;;;5169183;27;19940;-60
2022/04/05 00:23:40;;;;;;;;;;;21.20;24.40;;;;;;5163650;27;19927;-60
2022/04/05 00:26:05;;;;;;;;;;;20.90;24.60;;;;;;5162540;27;20028;-58
2022/04/05 00:28:31;;;;;;;;;;;21.20;24.30;;;;;;5165312;27;19923;-58
2022/04/05 00:30:57;;;;;;;;;;;21.00;24.50;;;;;;5162851;27;19931;-59
2022/04/05 00:33:23;;;;;;;;;;;21.10;24.40;;;;;;5163394;27;19998;-59
2022/04/05 00:35:49;;;;;;;;;;;21.20;24.30;;;;;;5168891;27;20037;-58
2022/04/05 00:38:14;;;;;;;;;;;21.10;24.40;;;;;;5163418;27;19923;-61
2022/04/05 00:40:40;;;;;;;;;;;21.10;24.40;;;;;;5168833;27;20458;-55
2022/04/05 00:43:06;;;;;;;;;;;21.20;24.30;;;;;;5162832;27;19923;-59
2022/04/05 00:45:32;;;;;;;;;;;21.20;24.40;;;;;;5160999;27;19931;-60
2022/04/05 00:47:59;;;;;;;;;;;21.20;24.30;;;;;;5166040;27;19929;-57
2022/04/05 00:50:26;;;;;;;;;;;21.10;24.40;;;;;;5144752;27;19923;-60
2022/04/05 00:52:51;;;;;;;;;;;21.10;24.40;;;;;;5144610;27;20202;-56
2022/04/05 00:55:22;;;;;;;;;;;21.10;24.40;;;;;;5168505;27;20021;-56
2022/04/05 00:57:51;;;;;;;;;;;21.10;24.40;;;;;;5163061;27;19922;-59
2022/04/05 01:00:17;;;;;;;;;;;21.30;24.30;;;;;;5164480;27;19966;-58
2022/04/05 01:02:43;;;;;;;;;;;21.10;24.50;;;;;;5166402;27;19923;-54
2022/04/05 01:05:09;;;;;;;;;;;21.20;24.30;;;;;;5157503;27;19982;-55
2022/04/05 01:07:35;;;;;;;;;;;21.00;24.50;;;;;;5167690;27;19940;-58
2022/04/05 01:10:00;;;;;;;;;;;21.20;24.30;;;;;;5163229;27;19927;-59
2022/04/05 01:12:26;;;;;;;;;;;21.00;24.50;;;;;;5163115;27;19977;-59
2022/04/05 01:14:52;;;;;;;;;;;21.20;24.30;;;;;;5168774;27;19923;-58
2022/04/05 01:17:18;;;;;;;;;;;21.10;24.40;;;;;;5144216;27;20310;-61
2022/04/05 01:19:47;;;;;;;;;;;21.10;24.40;;;;;;5162744;27;19930;-56
2022/04/05 01:22:12;;;;;;;;;;;21.20;24.40;;;;;;5168116;27;19922;-56
2022/04/05 01:24:38;;;;;;;;;;;21.10;24.50;;;;;;5163948;27;19922;-58
2022/04/05 01:27:06;;;;;;;;;;;21.20;24.50;;;;;;5172317;27;20368;-58
2022/04/05 01:29:32;;;;;;;;;;;21.10;24.50;;;;;;5167306;27;19938;-58
2022/04/05 01:31:59;;;;;;;;;;;21.20;24.60;;;;;;5148484;27;19923;-50
2022/04/05 01:34:25;;;;;;;;;;;21.20;24.50;;;;;;5172500;27;19978;-59
2022/04/05 01:36:55;;;;;;;;;;;21.10;24.70;;;;;;5166655;27;20323;-56
2022/04/05 01:39:21;;;;;;;;;;;21.20;24.60;;;;;;5166289;27;19929;-59
2022/04/05 01:41:54;;;;;;;;;;;21.10;24.90;;;;;;5169087;27;20556;-58
2022/04/05 01:44:20;;;;;;;;;;;21.20;24.90;;;;;;5147351;27;20005;-61
2022/04/05 01:46:46;;;;;;;;;;;21.00;25.20;;;;;;5167857;27;19929;-58
2022/04/05 01:49:14;;;;;;;;;;;21.10;25.20;;;;;;5171452;27;19930;-59
2022/04/05 01:51:40;;;;;;;;;;;21.10;25.20;;;;;;5148285;27;19929;-60
2022/04/05 01:54:07;;;;;;;;;;;21.20;25.30;;;;;;5171613;27;20277;-57
2022/04/05 01:56:33;;;;;;;;;;;21.20;25.20;;;;;;5166398;27;19923;-59
2022/04/05 01:58:59;;;;;;;;;;;21.20;25.20;;;;;;5164542;27;19923;-51
2022/04/05 02:01:25;;;;;;;;;;;21.20;25.20;;;;;;5168448;27;19931;-56
2022/04/05 02:03:51;;;;;;;;;;;21.10;25.30;;;;;;5166152;27;19969;-58
2022/04/05 02:06:16;;;;;;;;;;;21.00;25.50;;;;;;5166228;27;19927;-57
2022/04/05 02:08:42;;;;;;;;;;;21.20;25.50;;;;;;5171681;27;20370;-48
2022/04/05 02:11:08;;;;;;;;;;;21.10;25.50;;;;;;5147427;27;19989;-60
2022/04/05 02:13:34;;;;;;;;;;;21.10;25.80;;;;;;5171596;27;20017;-58
2022/04/05 02:16:01;;;;;;;;;;;21.20;25.80;;;;;;5146830;27;19971;-50
2022/04/05 02:18:27;;;;;;;;;;;21.10;25.90;;;;;;5163106;27;20321;-58
2022/04/05 02:20:54;;;;;;;;;;;21.10;25.90;;;;;;5169868;27;19947;-59
2022/04/05 02:23:20;;;;;;;;;;;21.00;25.90;;;;;;5165645;27;19927;-59
2022/04/05 02:25:46;;;;;;;;;;;21.20;25.80;;;;;;5165914;27;20429;-60
2022/04/05 02:28:12;;;;;;;;;;;21.10;25.90;;;;;;5171496;27;19930;-60
2022/04/05 02:30:38;;;;;;;;;;;21.20;25.90;;;;;;5166013;27;19923;-58
2022/04/05 02:33:04;;;;;;;;;;;21.00;26.20;;;;;;5170276;27;19923;-58
2022/04/05 02:35:30;;;;;;;;;;;21.10;26.30;;;;;;5165730;27;19976;-57
2022/04/05 02:37:59;;;;;;;;;;;21.20;26.20;;;;;;5162030;27;19926;-58
2022/04/05 02:40:25;;;;;;;;;;;21.10;26.30;;;;;;5170602;27;19922;-60
2022/04/05 02:42:51;;;;;;;;;;;21.20;26.20;;;;;;5165509;27;20390;-58
2022/04/05 02:45:17;;;;;;;;;;;20.90;26.50;;;;;;5165331;27;19959;-56
2022/04/05 02:47:43;;;;;;;;;;;20.90;26.60;;;;;;5170958;27;19930;-59
2022/04/05 02:50:09;;;;;;;;;;;21.10;26.40;;;;;;5146575;27;20294;-59
2022/04/05 02:52:35;;;;;;;;;;;21.30;26.30;;;;;;5165700;27;19945;-57
2022/04/05 02:55:01;;;;;;;;;;;21.20;26.40;;;;;;5168081;27;19927;-53
2022/04/05 02:57:27;;;;;;;;;;;21.10;26.50;;;;;;5162832;27;19927;-57
2022/04/05 02:59:54;;;;;;;;;;;21.10;26.50;;;;;;5170898;27;19966;-58
2022/04/05 03:02:19;;;;;;;;;;;21.20;26.50;;;;;;5165183;27;19922;-58
2022/04/05 03:04:45;;;;;;;;;;;21.10;26.60;;;;;;5146461;27;20381;-59
2022/04/05 03:07:11;;;;;;;;;;;21.10;26.60;;;;;;5170512;27;19923;-61
2022/04/05 03:09:37;;;;;;;;;;;21.20;26.70;;;;;;5164977;27;20002;-59
2022/04/05 03:12:03;;;;;;;;;;;21.20;26.90;;;;;;5164111;27;19923;-58
2022/04/05 03:14:28;;;;;;;;;;;21.20;26.90;;;;;;5166606;27;19933;-53
2022/04/05 03:16:54;;;;;;;;;;;21.20;26.90;;;;;;5164231;27;19923;-59
2022/04/05 03:19:20;;;;;;;;;;;21.10;27.30;;;;;;5170488;27;20390;-58
2022/04/05 03:21:46;;;;;;;;;;;21.10;27.30;;;;;;5164826;27;19927;-58
2022/04/05 03:24:11;;;;;;;;;;;21.10;27.40;;;;;;5164904;27;19926;-59
2022/04/05 03:26:37;;;;;;;;;;;21.10;27.50;;;;;;5170250;27;19927;-59
2022/04/05 03:29:03;;;;;;;;;;;21.10;27.40;;;;;;5164706;27;19931;-57
2022/04/05 03:31:29;;;;;;;;;;;21.20;27.40;;;;;;5162900;27;20311;-60
2022/04/05 03:33:55;;;;;;;;;;;21.10;27.40;;;;;;5166980;27;19923;-57
2022/04/05 03:36:20;;;;;;;;;;;21.30;27.30;;;;;;5164312;27;19922;-57
2022/04/05 03:38:46;;;;;;;;;;;21.20;27.50;;;;;;5170079;27;19999;-59
2022/04/05 03:41:12;;;;;;;;;;;21.10;27.60;;;;;;5164358;27;20286;-60
2022/04/05 03:43:38;;;;;;;;;;;21.20;27.70;;;;;;5163622;27;19958;-60
2022/04/05 03:46:04;;;;;;;;;;;21.00;27.80;;;;;;5169742;27;19971;-59
2022/04/05 03:48:29;;;;;;;;;;;21.20;27.50;;;;;;5163571;27;19933;-56
2022/04/05 03:50:55;;;;;;;;;;;21.10;27.30;;;;;;5161253;27;19923;-59
2022/04/05 03:53:21;;;;;;;;;;;21.20;27.00;;;;;;5168226;27;19923;-59
2022/04/05 03:55:47;;;;;;;;;;;21.10;27.00;;;;;;5164398;27;19927;-58
2022/04/05 03:58:13;;;;;;;;;;;21.10;27.10;;;;;;5169248;27;20393;-58
2022/04/05 04:00:39;;;;;;;;;;;21.00;27.00;;;;;;5165154;27;19927;-61
2022/04/05 04:03:04;;;;;;;;;;;21.20;26.90;;;;;;5163748;27;19923;-53
2022/04/05 04:05:30;;;;;;;;;;;21.20;26.70;;;;;;5169262;27;19927;-59
2022/04/05 04:07:56;;;;;;;;;;;21.10;26.70;;;;;;5162687;27;19929;-57
2022/04/05 04:10:22;;;;;;;;;;;21.10;26.80;;;;;;5141994;27;19934;-60
2022/04/05 04:12:47;;;;;;;;;;;21.10;26.70;;;;;;5168763;27;19923;-51
2022/04/05 04:15:13;;;;;;;;;;;21.10;26.60;;;;;;5163946;27;19933;-58
2022/04/05 04:17:39;;;;;;;;;;;21.00;26.70;;;;;;5166408;27;19927;-59
2022/04/05 04:20:05;;;;;;;;;;;21.20;26.50;;;;;;5166743;27;19923;-59
2022/04/05 04:22:31;;;;;;;;;;;21.10;26.60;;;;;;5145106;27;19926;-59
2022/04/05 04:24:57;;;;;;;;;;;21.20;26.70;;;;;;5168992;27;19975;-55
2022/04/05 04:27:26;;;;;;;;;;;21.20;27.00;;;;;;5161499;27;19927;-59
2022/04/05 04:29:51;;;;;;;;;;;21.10;27.30;;;;;;5161091;27;19937;-58
2022/04/05 04:32:17;;;;;;;;;;;21.20;27.40;;;;;;5169362;27;19952;-59
2022/04/05 04:34:43;;;;;;;;;;;21.10;27.50;;;;;;5163531;27;20022;-59
2022/04/05 04:37:09;;;;;;;;;;;21.20;27.30;;;;;;5163432;27;19937;-56
2022/04/05 04:39:35;;;;;;;;;;;21.30;27.10;;;;;;5168890;27;19922;-60
2022/04/05 04:42:01;;;;;;;;;;;21.00;27.50;;;;;;5163158;27;19933;-59
2022/04/05 04:44:27;;;;;;;;;;;21.20;27.30;;;;;;5149260;27;19934;-58
2022/04/05 04:46:53;;;;;;;;;;;21.10;27.60;;;;;;5159809;27;20366;-57
2022/04/05 04:49:18;;;;;;;;;;;21.20;27.50;;;;;;5162462;27;20013;-60
2022/04/05 04:51:44;;;;;;;;;;;21.10;27.70;;;;;;5168665;27;19932;-59
2022/04/05 04:54:10;;;;;;;;;;;21.20;27.50;;;;;;5163186;27;19927;-59
2022/04/05 04:56:36;;;;;;;;;;;21.20;27.60;;;;;;5163479;27;19928;-60
2022/04/05 04:59:02;;;;;;;;;;;21.10;27.80;;;;;;5168621;27;20362;-54
2022/04/05 05:01:27;;;;;;;;;;;21.20;27.70;;;;;;5163026;27;19922;-57
2022/04/05 05:03:53;;;;;;;;;;;21.00;28.10;;;;;;5166752;27;20335;-58
2022/04/05 05:06:19;;;;;;;;;;;21.20;28.10;;;;;;5160034;27;19926;-58
2022/04/05 05:08:45;;;;;;;;;;;21.00;28.40;;;;;;5162918;27;19929;-58
2022/04/05 05:11:11;;;;;;;;;;;21.10;28.20;;;;;;5168685;27;19922;-60
2022/04/05 05:13:36;;;;;;;;;;;21.20;28.10;;;;;;5163319;27;19990;-59
2022/04/05 05:16:02;;;;;;;;;;;21.10;28.30;;;;;;5163165;27;20143;-60
2022/04/05 05:18:28;;;;;;;;;;;21.20;28.20;;;;;;5168532;27;19974;-58
2022/04/05 05:20:54;;;;;;;;;;;21.10;28.20;;;;;;5162521;27;19975;-60
2022/04/05 05:23:20;;;;;;;;;;;21.10;28.20;;;;;;5165257;27;19930;-56
2022/04/05 05:25:47;;;;;;;;;;;21.10;28.50;;;;;;5161276;27;19923;-57
2022/04/05 05:28:13;;;;;;;;;;;21.10;28.60;;;;;;5162995;27;20438;-54
2022/04/05 05:30:39;;;;;;;;;;;21.20;28.60;;;;;;5168648;27;20297;-59
2022/04/05 05:33:05;;;;;;;;;;;21.00;28.90;;;;;;5162916;27;19974;-59
2022/04/05 05:35:31;;;;;;;;;;;21.20;28.80;;;;;;5162424;27;19995;-59
2022/04/05 05:37:56;;;;;;;;;;;21.00;29.30;;;;;;5167874;27;19927;-61
2022/04/05 05:40:22;;;;;;;;;;;21.00;29.30;;;;;;5161590;27;19923;-59
2022/04/05 05:42:49;;;;;;;;;;;21.10;29.30;;;;;;5162215;27;19923;-59
2022/04/05 05:45:15;;;;;;;;;;;21.10;29.30;;;;;;5165506;27;20059;-59
2022/04/05 05:47:41;;;;;;;;;;;21.20;29.30;;;;;;5162950;27;19969;-58
2022/04/05 05:50:07;;;;;;;;;;;21.20;29.40;;;;;;5168130;27;20267;-58
2022/04/05 05:52:32;;;;;;;;;;;21.10;29.60;;;;;;5162739;27;19927;-58
2022/04/05 05:54:58;;;;;;;;;;;21.20;29.40;;;;;;5162585;27;19930;-59
2022/04/05 05:57:24;;;;;;;;;;;21.10;29.40;;;;;;5167728;27;19927;-60
2022/04/05 05:59:50;;;;;;;;;;;21.10;29.40;;;;;;5160016;27;19970;-59
2022/04/05 06:02:15;;;;;;;;;;;21.20;29.30;;;;;;5160191;27;20332;-57
2022/04/05 06:04:42;;;;;;;;;;;21.10;29.50;;;;;;5167863;27;19926;-58
2022/04/05 06:07:09;;;;;;;;;;;21.20;29.40;;;;;;5163919;27;19923;-58
2022/04/05 06:09:35;;;;;;;;;;;21.20;29.30;;;;;;5171697;27;19927;-59
2022/04/05 06:12:01;;;;;;;;;;;21.20;29.60;;;;;;5166096;27;19930;-61
2022/04/05 06:14:26;;;;;;;;;;;21.00;29.70;;;;;;5165857;27;20308;-60
2022/04/05 06:16:52;;;;;;;;;;;21.20;29.50;;;;;;5171015;27;20334;-55
2022/04/05 06:19:21;;;;;;;;;;;21.00;29.70;;;;;;5162484;27;19927;-58
2022/04/05 06:21:47;;;;;;;;;;;21.10;29.50;;;;;;5165015;27;19923;-59
2022/04/05 06:24:12;;;;;;;;;;;21.00;29.50;;;;;;5171481;27;19923;-59
2022/04/05 06:26:38;;;;;;;;;;;21.10;29.50;;;;;;5165971;27;19930;-50
2022/04/05 06:29:04;;;;;;;;;;;21.10;29.40;;;;;;5171502;27;20053;-60
2022/04/05 06:31:30;;;;;;;;;;;21.10;29.30;;;;;;5165790;27;19923;-59
2022/04/05 06:33:58;;;;;;;;;;;21.10;29.20;;;;;;5165614;27;20366;-59
2022/04/05 06:36:24;;;;;;;;;;;21.10;29.30;;;;;;5169544;27;20516;-58
2022/04/05 06:38:50;;;;;;;;;;;21.10;29.40;;;;;;5162592;27;19969;-59
2022/04/05 06:41:15;;;;;;;;;;;21.20;29.40;;;;;;5165613;27;19934;-57
2022/04/05 06:43:41;;;;;;;;;;;21.10;29.30;;;;;;5171327;27;19922;-56
2022/04/05 06:46:07;;;;;;;;;;;21.10;29.40;;;;;;5146646;27;19959;-59
2022/04/05 06:48:33;;;;;;;;;;;21.10;29.50;;;;;;5170013;27;19922;-58
2022/04/05 06:50:58;;;;;;;;;;;21.20;29.20;;;;;;5166910;27;19934;-59
2022/04/05 06:53:24;;;;;;;;;;;21.10;29.30;;;;;;5165001;27;19926;-59
2022/04/05 06:55:50;;;;;;;;;;;21.20;29.20;;;;;;5167675;27;19926;-59
2022/04/05 06:58:16;;;;;;;;;;;21.10;29.30;;;;;;5163702;27;20304;-54
2022/04/05 07:00:42;;;;;;;;;;;21.20;29.10;;;;;;5165263;27;19923;-58
2022/04/05 07:03:07;;;;;;;;;;;21.20;29.10;;;;;;5170669;27;19923;-59
2022/04/05 07:05:33;;;;;;;;;;;21.00;29.40;;;;;;5165173;27;19929;-59
2022/04/05 07:07:59;;;;;;;;;;;21.10;29.20;;;;;;5167411;27;19931;-58
2022/04/05 07:10:25;;;;;;;;;;;21.10;29.50;;;;;;5168369;27;19973;-59
2022/04/05 07:12:51;;;;;;;;;;;21.20;29.30;;;;;;5163841;27;19922;-57
2022/04/05 07:15:16;;;;;;;;;;;21.30;29.20;;;;;;5166826;27;19976;-60
2022/04/05 07:17:43;;;;;;;;;;;21.20;29.40;;;;;;5145607;27;20454;-56
2022/04/05 07:20:10;;;;;;;;;;;20.90;30.00;;;;;;5164186;27;20409;-60
2022/04/05 07:22:36;;;;;;;;;;;21.10;29.70;;;;;;5170288;27;20300;-52
2022/04/05 07:25:02;;;;;;;;;;;21.10;29.70;;;;;;5164822;27;20028;-57
2022/04/05 07:27:29;;;;;;;;;;;21.20;29.60;;;;;;5164629;27;19952;-58
2022/04/05 07:29:54;;;;;;;;;;;21.00;29.60;;;;;;5169718;27;19966;-60
2022/04/05 07:32:20;;;;;;;;;;;21.20;29.40;;;;;;5162156;27;20365;-58
2022/04/05 07:34:46;;;;;;;;;;;21.00;29.40;;;;;;5146665;27;20029;-58
2022/04/05 07:37:12;;;;;;;;;;;21.10;29.20;;;;;;5164502;27;19922;-59
2022/04/05 07:39:38;;;;;;;;;;;21.00;29.40;;;;;;5164656;27;19927;-59
2022/04/05 07:42:04;;;;;;;;;;;21.20;29.20;;;;;;5170004;27;20002;-60
2022/04/05 07:44:30;;;;;;;;;;;21.10;29.30;;;;;;5164294;27;19930;-56
2022/04/05 07:46:55;;;;;;;;;;;21.10;29.40;;;;;;5164197;27;20457;-60
2022/04/05 07:49:21;;;;;;;;;;;21.10;29.30;;;;;;5168621;27;19987;-59
2022/04/05 07:51:47;;;;;;;;;;;21.10;29.30;;;;;;5160386;27;19933;-53
2022/04/05 07:54:13;;;;;;;;;;;21.20;29.10;;;;;;5168772;27;19931;-61
2022/04/05 07:56:39;;;;;;;;;;;21.00;29.40;;;;;;5164038;27;20369;-59
2022/04/05 07:59:05;;;;;;;;;;;21.20;29.10;;;;;;5164326;27;19945;-60
2022/04/05 08:01:30;;;;;;;;;;;21.10;29.20;;;;;;5169726;27;20369;-59
2022/04/05 08:03:56;;;;;;;;;;;21.00;29.30;;;;;;5164135;27;19927;-58
2022/04/05 08:06:24;;;;;;;;;;;21.10;29.30;;;;;;5163725;27;20229;-57
2022/04/05 08:08:50;;;;;;;;;;;21.20;29.30;;;;;;5165258;27;19922;-60
2022/04/05 08:11:16;;;;;;;;;;;21.20;29.40;;;;;;5160629;27;19922;-60
2022/04/05 08:13:41;;;;;;;;;;;21.10;29.40;;;;;;5168274;27;19923;-58
2022/04/05 08:16:07;;;;;;;;;;;21.10;29.50;;;;;;5165096;27;19933;-57
2022/04/05 08:18:33;;;;;;;;;;;21.10;29.60;;;;;;5163649;27;19922;-59
2022/04/05 08:20:59;;;;;;;;;;;21.20;29.70;;;;;;5169313;27;19982;-57
2022/04/05 08:23:25;;;;;;;;;;;21.10;29.80;;;;;;5163622;27;20482;-57
2022/04/05 08:25:51;;;;;;;;;;;21.10;29.80;;;;;;5163082;27;19929;-58
2022/04/05 08:28:17;;;;;;;;;;;21.10;30.00;;;;;;5165766;27;20017;-58
2022/04/05 08:30:43;;;;;;;;;;;21.20;30.00;;;;;;5142977;27;19971;-60
2022/04/05 08:33:08;;;;;;;;;;;21.10;30.20;;;;;;5165773;27;20030;-57
2022/04/05 08:35:34;;;;;;;;;;;21.20;30.20;;;;;;5148083;27;19929;-60
2022/04/05 08:38:00;;;;;;;;;;;21.10;30.20;;;;;;5163407;27;19926;-53
2022/04/05 08:40:26;;;;;;;;;;;21.00;30.80;;;;;;5150419;27;19933;-60
2022/04/05 08:42:52;;;;;;;;;;;21.00;31.00;;;;;;5163116;27;20346;-61
2022/04/05 08:45:19;;;;;;;;;;;21.20;30.70;;;;;;5161994;27;19978;-60
2022/04/05 08:47:48;;;;;;;;;;;21.00;31.00;;;;;;5164814;27;19926;-61
2022/04/05 08:50:17;;;;;;;;;;;21.20;30.80;;;;;;5162692;27;19970;-51
2022/04/05 08:52:44;;;;;;;;;;;21.20;30.80;;;;;;5163115;27;19923;-60
2022/04/05 08:55:09;;;;;;;;;;;21.10;31.00;;;;;;5168569;27;19972;-49
2022/04/05 08:57:35;;;;;;;;;;;21.20;31.00;;;;;;5163165;27;20324;-60
2022/04/05 09:00:02;;;;;;;;;;;21.00;31.30;;;;;;5168588;27;19931;-53
2022/04/05 09:02:28;;;;;;;;;;;21.20;31.00;;;;;;5162543;27;19929;-60
2022/04/05 09:04:53;;;;;;;;;;;21.20;31.40;;;;;;5141455;27;19923;-57
2022/04/05 09:07:20;;;;;;;;;;;21.10;31.70;;;;;;5166193;27;20301;-61
2022/04/05 09:09:46;;;;;;;;;;;21.20;31.60;;;;;;5163033;27;19923;-56
2022/04/05 09:12:16;;;;;;;;;;;21.00;31.70;;;;;;5144695;27;19926;-59
2022/04/05 09:14:41;;;;;;;;;;;21.20;31.70;;;;;;5168450;27;20017;-57
2022/04/05 09:17:08;;;;;;;;;;;21.10;31.80;;;;;;5162823;27;19922;-59
2022/04/05 09:19:37;;;;;;;;;;;21.20;31.80;;;;;;5165556;27;20290;-59
2022/04/05 09:22:03;;;;;;;;;;;21.10;32.00;;;;;;5166000;27;19923;-54
2022/04/05 09:24:39;;;;;;;;;;;21.20;31.90;;;;;;5159332;27;19926;-57
2022/04/05 09:27:05;;;;;;;;;;;21.10;32.30;;;;;;5168029;27;19923;-56
2022/04/05 09:29:40;;;;;;;;;;;21.30;31.90;;;;;;5163091;27;19930;-60
2022/04/05 09:32:06;;;;;;;;;;;21.00;32.10;;;;;;5162720;27;20409;-57
2022/04/05 09:34:32;;;;;;;;;;;21.20;31.80;;;;;;5149893;27;19927;-59
2022/04/05 09:36:58;;;;;;;;;;;21.00;32.00;;;;;;5144293;27;20006;-53
2022/04/05 09:39:24;;;;;;;;;;;21.20;31.70;;;;;;5143546;27;19922;-59
2022/04/05 09:41:52;;;;;;;;;;;21.10;32.10;;;;;;5166425;27;20022;-54
2022/04/05 09:44:24;;;;;;;;;;;21.30;31.90;;;;;;5164757;27;20442;-58
2022/04/05 09:46:52;;;;;;;;;;;21.10;32.50;;;;;;5166863;27;19974;-58
2022/04/05 09:49:18;;;;;;;;;;;21.20;32.20;;;;;;5172256;27;19923;-59
2022/04/05 09:51:44;;;;;;;;;;;21.20;32.10;;;;;;5166564;27;19975;-49
2022/04/05 09:54:22;;;;;;;;;;;21.20;32.20;;;;;;5172335;27;19933;-55
2022/04/05 09:56:48;;;;;;;;;;;21.20;32.00;;;;;;5168445;27;19923;-58
2022/04/05 09:59:18;;;;;;;;;;;21.00;32.40;;;;;;5164917;27;19958;-59
2022/04/05 10:01:45;;;;;;;;;;;21.30;32.10;;;;;;5149590;27;19923;-59
2022/04/05 10:04:11;;;;;;;;;;;21.00;32.70;;;;;;5165937;27;20271;-57
2022/04/05 10:06:46;;;;;;;;;;;21.20;32.20;;;;;;5166263;27;19927;-59
2022/04/05 10:09:12;;;;;;;;;;;21.10;32.70;;;;;;5171889;27;19926;-57
2022/04/05 10:11:39;;;;;;;;;;;21.20;32.60;;;;;;5147777;27;19982;-55
2022/04/05 10:14:05;;;;;;;;;;;21.10;33.00;;;;;;5166197;27;20289;-54
2022/04/05 10:16:31;;;;;;;;;;;21.20;32.80;;;;;;5171096;27;19929;-58
2022/04/05 10:19:01;;;;;;;;;;;21.30;32.90;;;;;;5162999;27;19931;-59
2022/04/05 10:21:27;;;;;;;;;;;21.00;33.20;;;;;;5168657;27;20289;-56
2022/04/05 10:23:53;;;;;;;;;;;21.20;33.00;;;;;;5167757;27;20009;-57
2022/04/05 10:26:24;;;;;;;;;;;21.10;33.30;;;;;;5166035;27;19927;-58
2022/04/05 10:28:50;;;;;;;;;;;21.20;33.20;;;;;;5171664;27;19922;-58
2022/04/05 10:31:25;;;;;;;;;;;20.90;34.00;;;;;;5147328;27;19922;-60
2022/04/05 10:33:59;;;;;;;;;;;21.20;33.90;;;;;;5165804;27;19930;-57
2022/04/05 10:36:25;;;;;;;;;;;21.00;34.50;;;;;;5169414;27;20301;-58
2022/04/05 10:39:10;;;;;;;;;;;21.10;34.20;;;;;;5162156;27;19927;-58
2022/04/05 10:41:35;;;;;;;;;;;21.10;34.00;;;;;;5165527;27;19960;-57
2022/04/05 10:44:16;;;;;;;;;;;21.10;34.10;;;;;;5171093;27;20130;-56
2022/04/05 10:46:43;;;;;;;;;;;21.00;34.60;;;;;;5165753;27;20417;-60
2022/04/05 10:49:08;;;;;;;;;;;21.00;34.60;;;;;;5165592;27;19945;-58
2022/04/05 10:51:53;;;;;;;;;;;21.10;34.60;;;;;;5170745;27;19926;-58
2022/04/05 10:54:19;;;;;;;;;;;21.20;34.40;;;;;;5163832;27;20482;-59
2022/04/05 10:57:04;;;;;;;;;;;21.10;34.50;;;;;;5161588;27;20105;-55
2022/04/05 10:59:36;;;;;;;;;;;21.20;34.20;;;;;;5170497;27;19933;-59
2022/04/05 11:02:02;;;;;;;;;;;21.00;34.50;;;;;;5146464;27;19923;-54
2022/04/05 11:04:31;;;;;;;;;;;21.10;34.50;;;;;;5146372;27;20032;-62
2022/04/05 11:07:03;;;;;;;;;;;21.10;34.60;;;;;;5170663;27;19923;-54
2022/04/05 11:09:35;;;;;;;;;;;21.10;34.60;;;;;;5165002;27;19922;-59
2022/04/05 11:12:01;;;;;;;;;;;21.10;34.60;;;;;;5164657;27;19932;-59
2022/04/05 11:14:43;;;;;;;;;;;21.20;34.60;;;;;;5148459;27;19966;-59
2022/04/05 11:17:09;;;;;;;;;;;21.10;34.90;;;;;;5145410;27;19927;-58
2022/04/05 11:19:36;;;;;;;;;;;21.10;34.70;;;;;;5167163;27;19930;-56
2022/04/05 11:22:05;;;;;;;;;;;21.10;34.80;;;;;;5168583;27;19930;-51
2022/04/05 11:24:49;;;;;;;;;;;21.10;34.90;;;;;;5165037;27;20017;-59
2022/04/05 11:27:25;;;;;;;;;;;21.10;35.20;;;;;;5169036;27;20290;-58
2022/04/05 11:30:10;;;;;;;;;;;21.00;35.40;;;;;;5169659;27;19977;-55
2022/04/05 11:32:36;;;;;;;;;;;21.20;35.00;;;;;;5161832;27;19933;-57
2022/04/05 11:35:02;;;;;;;;;;;21.00;35.10;;;;;;5165650;27;19923;-56
2022/04/05 11:37:34;;;;;;;;;;;21.30;34.70;;;;;;5167622;27;19936;-59
2022/04/05 11:40:01;;;;;;;;;;;21.10;35.00;;;;;;5146054;27;19923;-56
2022/04/05 11:42:26;;;;;;;;;;;21.20;34.70;;;;;;5169934;27;20009;-57
2022/04/05 11:44:52;;;;;;;;;;;21.00;34.90;;;;;;5164310;27;19930;-58
2022/04/05 11:47:18;;;;;;;;;;;21.00;34.90;;;;;;5145661;27;19923;-55
2022/04/05 11:49:44;;;;;;;;;;;21.20;34.60;;;;;;5168566;27;20298;-56
2022/04/05 11:52:10;;;;;;;;;;;21.00;35.20;;;;;;5160542;27;19923;-54
2022/04/05 11:56:00;;;;;;;;;;;21.10;35.10;;;;;;5163862;27;19936;-48
2022/04/05 11:57:21;;;;;;;;;;;21.00;35.10;;;;;;5169887;27;20013;-57
2022/04/05 11:59:47;;;;;;;;;;;21.30;34.80;;;;;;5164211;27;20393;-58
2022/04/05 12:02:13;;;;;;;;;;;21.00;35.30;;;;;;5165292;27;19926;-54
2022/04/05 12:04:39;;;;;;;;;;;21.20;35.00;;;;;;5168122;27;19970;-57
2022/04/05 12:07:05;;;;;;;;;;;20.90;35.70;;;;;;5163441;27;19962;-57
2022/04/05 12:09:32;;;;;;;;;;;21.30;35.30;;;;;;5166365;27;19923;-59
2022/04/05 12:11:57;;;;;;;;;;;21.20;35.50;;;;;;5161926;27;19927;-55
2022/04/05 12:14:24;;;;;;;;;;;21.30;35.30;;;;;;5144799;27;19927;-59
2022/04/05 12:16:57;;;;;;;;;;;21.10;35.50;;;;;;5169211;27;20301;-57
2022/04/05 12:19:23;;;;;;;;;;;21.30;35.00;;;;;;5163862;27;19931;-59
2022/04/05 12:21:53;;;;;;;;;;;21.00;35.60;;;;;;5163756;27;19965;-59
2022/04/05 12:24:18;;;;;;;;;;;21.30;35.20;;;;;;5169024;27;19923;-58
2022/04/05 12:26:44;;;;;;;;;;;21.00;35.70;;;;;;5162119;27;19930;-57
2022/04/05 12:29:10;;;;;;;;;;;21.20;35.10;;;;;;5145909;27;19923;-59
2022/04/05 12:31:36;;;;;;;;;;;21.00;35.40;;;;;;5164556;27;19927;-57
2022/04/05 12:34:09;;;;;;;;;;;21.20;35.10;;;;;;5163629;27;19933;-58
2022/04/05 12:36:37;;;;;;;;;;;21.10;35.40;;;;;;5169097;27;20018;-59
2022/04/05 12:39:04;;;;;;;;;;;21.20;35.10;;;;;;5163344;27;19922;-59
2022/04/05 12:41:36;;;;;;;;;;;21.30;35.00;;;;;;5163658;27;20342;-55
2022/04/05 12:44:02;;;;;;;;;;;21.20;35.20;;;;;;5168697;27;20021;-56
2022/04/05 12:46:34;;;;;;;;;;;21.20;35.20;;;;;;5160267;27;19927;-55
2022/04/05 12:49:12;;;;;;;;;;;21.10;35.20;;;;;;5161490;27;20640;-53
2022/04/05 12:51:38;;;;;;;;;;;21.20;35.20;;;;;;5168694;27;19933;-58
2022/04/05 12:54:04;;;;;;;;;;;21.10;35.50;;;;;;5163176;27;19926;-56
2022/04/05 12:56:30;;;;;;;;;;;21.20;35.30;;;;;;5163089;27;20378;-55
2022/04/05 12:59:02;;;;;;;;;;;21.10;35.30;;;;;;5168541;27;19949;-59
2022/04/05 13:01:29;;;;;;;;;;;21.10;35.40;;;;;;5144507;27;19937;-57
2022/04/05 13:03:58;;;;;;;;;;;21.10;35.30;;;;;;5166830;27;19923;-50
2022/04/05 13:06:27;;;;;;;;;;;21.20;35.30;;;;;;5160240;27;19923;-56
2022/04/05 13:09:03;;;;;;;;;;;21.10;35.50;;;;;;5144572;27;20442;-52
2022/04/05 13:11:30;;;;;;;;;;;21.10;35.90;;;;;;5168657;27;19933;-57
2022/04/05 13:14:14;;;;;;;;;;;21.20;35.50;;;;;;5163093;27;19933;-58
2022/04/05 13:16:41;;;;;;;;;;;21.10;35.60;;;;;;5145332;27;19926;-56
2022/04/05 13:19:27;;;;;;;;;;;21.10;35.40;;;;;;5172694;27;19926;-54
2022/04/05 13:21:53;;;;;;;;;;;21.30;35.30;;;;;;5166307;27;19952;-57
2022/04/05 13:24:19;;;;;;;;;;;21.00;35.60;;;;;;5163241;27;20041;-57
2022/04/05 13:26:49;;;;;;;;;;;21.30;35.30;;;;;;5153583;27;20305;-55
2022/04/05 13:29:16;;;;;;;;;;;21.10;35.50;;;;;;5167265;27;19931;-56
2022/04/05 13:31:43;;;;;;;;;;;21.30;35.30;;;;;;5167206;27;19929;-56
2022/04/05 13:34:09;;;;;;;;;;;21.00;35.90;;;;;;5172583;27;19927;-57
2022/04/05 13:36:35;;;;;;;;;;;21.30;35.40;;;;;;5166803;27;20378;-56
2022/04/05 13:39:01;;;;;;;;;;;21.00;36.00;;;;;;5166817;27;19937;-57
2022/04/05 13:41:27;;;;;;;;;;;21.30;35.70;;;;;;5169727;27;20285;-58
2022/04/05 13:43:53;;;;;;;;;;;20.90;36.30;;;;;;5164237;27;20362;-58
2022/04/05 13:46:19;;;;;;;;;;;21.30;35.60;;;;;;5172209;27;19923;-58
2022/04/05 13:48:45;;;;;;;;;;;21.10;36.00;;;;;;5166888;27;19922;-58
2022/04/05 13:51:11;;;;;;;;;;;21.20;35.90;;;;;;5166840;27;19922;-59
2022/04/05 13:53:37;;;;;;;;;;;21.00;36.50;;;;;;5172400;27;19928;-58
2022/04/05 13:56:02;;;;;;;;;;;21.10;36.40;;;;;;5166460;27;20029;-55
2022/04/05 13:58:28;;;;;;;;;;;21.20;36.40;;;;;;5165690;27;19923;-58
2022/04/05 14:00:54;;;;;;;;;;;21.10;36.40;;;;;;5168453;27;19923;-57
2022/04/05 14:03:20;;;;;;;;;;;21.30;35.90;;;;;;5165787;27;19922;-59
2022/04/05 14:05:46;;;;;;;;;;;21.00;36.30;;;;;;5172223;27;19926;-49
2022/04/05 14:08:11;;;;;;;;;;;21.30;35.90;;;;;;5166747;27;19923;-51
2022/04/05 14:10:38;;;;;;;;;;;20.90;36.60;;;;;;5166275;27;19926;-58
2022/04/05 14:13:04;;;;;;;;;;;21.20;36.30;;;;;;5171799;27;19931;-55
2022/04/05 14:15:30;;;;;;;;;;;21.10;36.30;;;;;;5165988;27;19927;-49